createdAt,value
2018-07-28T00:00:08.581Z,995.41
2018-07-28T00:00:49.130Z,995.43
2018-07-28T00:01:29.600Z,995.48
2018-07-28T00:02:10.104Z,995.46
2018-07-28T00:02:50.619Z,995.45
2018-07-28T00:03:31.131Z,995.45
2018-07-28T00:04:11.670Z,995.46
2018-07-28T00:04:52.146Z,995.46
2018-07-28T00:05:32.619Z,995.44
2018-07-28T00:06:13.150Z,995.47
2018-07-28T00:06:53.674Z,995.44
2018-07-28T00:07:34.179Z,995.45
2018-07-28T00:08:14.734Z,995.45
2018-07-28T00:08:55.176Z,995.44
2018-07-28T00:09:35.665Z,995.46
2018-07-28T00:10:16.189Z,995.45
2018-07-28T00:10:56.702Z,995.39
2018-07-28T00:11:37.164Z,995.43
2018-07-28T00:12:17.690Z,995.41
2018-07-28T00:12:58.185Z,995.37
2018-07-28T00:13:38.677Z,995.36
2018-07-28T00:14:19.199Z,995.39
2018-07-28T00:14:59.699Z,995.38
2018-07-28T00:15:40.168Z,995.39
2018-07-28T00:16:20.715Z,995.36
2018-07-28T00:17:01.228Z,995.41
2018-07-28T00:17:41.682Z,995.4
2018-07-28T00:18:22.205Z,995.38
2018-07-28T00:19:02.695Z,995.44
2018-07-28T00:19:43.157Z,995.37
2018-07-28T00:20:23.693Z,995.36
2018-07-28T00:21:04.157Z,995.39
2018-07-28T00:21:44.673Z,995.36
2018-07-28T00:22:25.183Z,995.35
2018-07-28T00:23:05.682Z,995.34
2018-07-28T00:23:46.187Z,995.4
2018-07-28T00:24:26.676Z,995.36
2018-07-28T00:25:07.180Z,995.37
2018-07-28T00:25:47.713Z,995.32
2018-07-28T00:26:28.224Z,995.37
2018-07-28T00:27:08.692Z,995.37
2018-07-28T00:27:49.185Z,995.36
2018-07-28T00:28:29.720Z,995.34
2018-07-28T00:29:10.179Z,995.32
2018-07-28T00:29:50.675Z,995.34
2018-07-28T00:30:31.179Z,995.3
2018-07-28T00:31:11.637Z,995.3
2018-07-28T00:31:52.168Z,995.3
2018-07-28T00:32:32.690Z,995.25
2018-07-28T00:33:13.177Z,995.28
2018-07-28T00:33:53.660Z,995.29
2018-07-28T00:34:34.129Z,995.26
2018-07-28T00:35:14.683Z,995.23
2018-07-28T00:35:55.183Z,995.25
2018-07-28T00:36:35.675Z,995.27
2018-07-28T00:37:16.189Z,995.24
2018-07-28T00:37:56.709Z,995.23
2018-07-28T00:38:37.207Z,995.24
2018-07-28T00:39:17.711Z,995.24
2018-07-28T00:39:58.201Z,995.19
2018-07-28T00:40:38.745Z,995.18
2018-07-28T00:41:19.181Z,995.25
2018-07-28T00:41:59.730Z,995.2
2018-07-28T00:42:40.200Z,995.21
2018-07-28T00:43:20.670Z,995.25
2018-07-28T00:44:01.229Z,995.23
2018-07-28T00:44:41.722Z,995.2
2018-07-28T00:45:22.270Z,995.21
2018-07-28T00:46:02.796Z,995.17
2018-07-28T00:46:43.257Z,995.22
2018-07-28T00:47:23.754Z,995.19
2018-07-28T00:48:04.302Z,995.18
2018-07-28T00:48:44.829Z,995.21
2018-07-28T00:49:25.309Z,995.22
2018-07-28T00:50:05.779Z,995.21
2018-07-28T00:50:46.262Z,995.23
2018-07-28T00:51:26.777Z,995.21
2018-07-28T00:52:07.303Z,995.22
2018-07-28T00:52:47.810Z,995.16
2018-07-28T00:53:28.289Z,995.17
2018-07-28T00:54:08.838Z,995.15
2018-07-28T00:54:49.340Z,995.15
2018-07-28T00:55:29.903Z,995.16
2018-07-28T00:56:10.394Z,995.12
2018-07-28T00:56:50.912Z,995.15
2018-07-28T00:57:31.393Z,995.09
2018-07-28T00:58:11.931Z,995.12
2018-07-28T00:58:52.440Z,995.11
2018-07-28T00:59:32.948Z,995.12
2018-07-28T01:00:13.546Z,995.12
2018-07-28T01:00:54.057Z,995.08
2018-07-28T01:01:34.515Z,995.04
2018-07-28T01:02:14.999Z,995.04
2018-07-28T01:02:55.545Z,995.07
2018-07-28T01:03:36.053Z,995.06
2018-07-28T01:04:16.759Z,995.06
2018-07-28T01:04:57.199Z,995.06
2018-07-28T01:05:37.738Z,995.04
2018-07-28T01:06:18.213Z,995.01
2018-07-28T01:06:58.721Z,995.02
2018-07-28T01:07:39.240Z,995.04
2018-07-28T01:08:19.675Z,995.02
2018-07-28T01:09:00.201Z,995.07
2018-07-28T01:09:40.709Z,995.01
2018-07-28T01:10:21.201Z,995.06
2018-07-28T01:11:01.688Z,995.04
2018-07-28T01:11:42.169Z,995.06
2018-07-28T01:12:22.691Z,995.05
2018-07-28T01:13:03.191Z,995.06
2018-07-28T01:13:43.700Z,995.05
2018-07-28T01:14:24.167Z,995.05
2018-07-28T01:15:04.658Z,995.03
2018-07-28T01:15:45.164Z,995.02
2018-07-28T01:16:25.637Z,995
2018-07-28T01:17:06.111Z,995.02
2018-07-28T01:17:46.772Z,995.02
2018-07-28T01:18:27.310Z,994.99
2018-07-28T01:19:07.807Z,995.01
2018-07-28T01:19:48.324Z,994.96
2018-07-28T01:20:28.837Z,994.93
2018-07-28T01:21:09.370Z,994.92
2018-07-28T01:21:49.893Z,994.94
2018-07-28T01:22:30.329Z,994.94
2018-07-28T01:23:10.838Z,994.95
2018-07-28T01:23:51.374Z,994.9
2018-07-28T01:24:31.879Z,994.89
2018-07-28T01:25:12.394Z,994.88
2018-07-28T01:25:52.879Z,994.93
2018-07-28T01:26:33.377Z,994.9
2018-07-28T01:27:13.883Z,994.91
2018-07-28T01:27:54.404Z,994.89
2018-07-28T01:28:34.877Z,994.9
2018-07-28T01:29:15.432Z,994.92
2018-07-28T01:29:55.893Z,994.88
2018-07-28T01:30:36.415Z,994.91
2018-07-28T01:31:16.884Z,994.91
2018-07-28T01:31:57.424Z,994.94
2018-07-28T01:32:37.901Z,995
2018-07-28T01:33:18.394Z,994.96
2018-07-28T01:33:58.898Z,995
2018-07-28T01:34:39.355Z,994.98
2018-07-28T01:35:19.938Z,994.98
2018-07-28T01:36:00.490Z,994.95
2018-07-28T01:36:40.943Z,995.02
2018-07-28T01:37:21.489Z,995.05
2018-07-28T01:38:02.070Z,995.04
2018-07-28T01:38:42.585Z,995.01
2018-07-28T01:39:23.092Z,995
2018-07-28T01:40:03.586Z,995.03
2018-07-28T01:40:44.138Z,995.03
2018-07-28T01:41:24.615Z,995.05
2018-07-28T01:42:05.156Z,994.99
2018-07-28T01:42:45.611Z,995.03
2018-07-28T01:43:26.142Z,994.98
2018-07-28T01:44:06.626Z,994.91
2018-07-28T01:44:47.099Z,994.98
2018-07-28T01:45:27.601Z,994.96
2018-07-28T01:46:08.083Z,995
2018-07-28T01:46:48.560Z,995.02
2018-07-28T01:47:29.060Z,994.98
2018-07-28T01:48:09.548Z,994.99
2018-07-28T01:48:50.061Z,994.98
2018-07-28T01:49:30.547Z,995
2018-07-28T01:50:11.037Z,994.98
2018-07-28T01:50:51.527Z,994.97
2018-07-28T01:51:32.062Z,994.96
2018-07-28T01:52:12.509Z,995.01
2018-07-28T01:52:53.009Z,994.96
2018-07-28T01:53:33.512Z,994.96
2018-07-28T01:54:13.964Z,994.93
2018-07-28T01:54:54.451Z,994.93
2018-07-28T01:55:34.988Z,994.94
2018-07-28T01:56:15.461Z,994.92
2018-07-28T01:56:55.987Z,994.89
2018-07-28T01:57:36.470Z,994.93
2018-07-28T01:58:17.010Z,994.89
2018-07-28T01:58:57.717Z,994.9
2018-07-28T01:59:38.275Z,994.85
2018-07-28T02:00:18.788Z,994.88
2018-07-28T02:00:59.260Z,994.86
2018-07-28T02:01:39.779Z,994.81
2018-07-28T02:02:20.273Z,994.78
2018-07-28T02:03:00.776Z,994.8
2018-07-28T02:03:41.273Z,994.82
2018-07-28T02:04:21.792Z,994.79
2018-07-28T02:05:02.301Z,994.77
2018-07-28T02:05:42.809Z,994.77
2018-07-28T02:06:23.278Z,994.73
2018-07-28T02:07:03.767Z,994.77
2018-07-28T02:07:44.257Z,994.77
2018-07-28T02:08:24.780Z,994.8
2018-07-28T02:09:05.283Z,994.79
2018-07-28T02:09:45.785Z,994.78
2018-07-28T02:10:26.250Z,994.79
2018-07-28T02:11:06.720Z,994.8
2018-07-28T02:11:47.188Z,994.78
2018-07-28T02:12:27.718Z,994.76
2018-07-28T02:13:08.218Z,994.81
2018-07-28T02:13:48.733Z,994.76
2018-07-28T02:14:29.236Z,994.76
2018-07-28T02:15:09.762Z,994.77
2018-07-28T02:15:50.216Z,994.79
2018-07-28T02:16:30.695Z,994.76
2018-07-28T02:17:11.229Z,994.8
2018-07-28T02:17:51.714Z,994.78
2018-07-28T02:18:32.227Z,994.77
2018-07-28T02:19:12.722Z,994.76
2018-07-28T02:19:53.164Z,994.72
2018-07-28T02:20:33.694Z,994.71
2018-07-28T02:21:14.201Z,994.68
2018-07-28T02:21:54.731Z,994.68
2018-07-28T02:22:35.233Z,994.69
2018-07-28T02:23:15.780Z,994.64
2018-07-28T02:23:56.235Z,994.63
2018-07-28T02:24:36.747Z,994.69
2018-07-28T02:25:17.276Z,994.65
2018-07-28T02:25:57.739Z,994.67
2018-07-28T02:26:38.195Z,994.61
2018-07-28T02:27:18.712Z,994.67
2018-07-28T02:27:59.162Z,994.68
2018-07-28T02:28:39.706Z,994.68
2018-07-28T02:29:20.198Z,994.67
2018-07-28T02:30:00.698Z,994.68
2018-07-28T02:30:41.186Z,994.69
2018-07-28T02:31:21.685Z,994.68
2018-07-28T02:32:02.133Z,994.7
2018-07-28T02:32:42.619Z,994.67
2018-07-28T02:33:23.188Z,994.68
2018-07-28T02:34:03.641Z,994.65
2018-07-28T02:34:44.147Z,994.66
2018-07-28T02:35:24.620Z,994.64
2018-07-28T02:36:05.102Z,994.66
2018-07-28T02:36:45.622Z,994.64
2018-07-28T02:37:26.117Z,994.65
2018-07-28T02:38:06.615Z,994.64
2018-07-28T02:38:47.131Z,994.66
2018-07-28T02:39:27.669Z,994.66
2018-07-28T02:40:08.204Z,994.66
2018-07-28T02:40:48.709Z,994.67
2018-07-28T02:41:29.175Z,994.64
2018-07-28T02:42:09.705Z,994.64
2018-07-28T02:42:50.184Z,994.66
2018-07-28T02:43:30.667Z,994.6
2018-07-28T02:44:11.181Z,994.66
2018-07-28T02:44:51.705Z,994.64
2018-07-28T02:45:32.211Z,994.67
2018-07-28T02:46:12.689Z,994.61
2018-07-28T02:46:53.202Z,994.64
2018-07-28T02:47:33.649Z,994.67
2018-07-28T02:48:14.214Z,994.66
2018-07-28T02:48:54.675Z,994.71
2018-07-28T02:49:35.130Z,994.77
2018-07-28T02:50:15.638Z,994.81
2018-07-28T02:50:56.130Z,994.89
2018-07-28T02:51:36.665Z,994.91
2018-07-28T02:52:17.147Z,994.98
2018-07-28T02:52:57.625Z,995.03
2018-07-28T02:53:38.110Z,995.07
2018-07-28T02:54:18.581Z,995.09
2018-07-28T02:54:59.110Z,995.1
2018-07-28T02:55:39.576Z,995.11
2018-07-28T02:56:20.098Z,995.08
2018-07-28T02:57:00.546Z,995.05
2018-07-28T02:57:41.976Z,995.08
2018-07-28T02:58:22.463Z,995.08
2018-07-28T02:59:02.970Z,995.13
2018-07-28T02:59:43.491Z,995.11
2018-07-28T03:00:24.042Z,995.14
2018-07-28T03:01:04.439Z,995.12
2018-07-28T03:01:44.915Z,995.12
2018-07-28T03:02:25.404Z,995.17
2018-07-28T03:03:05.884Z,995.12
2018-07-28T03:03:46.454Z,995.15
2018-07-28T03:04:27.004Z,995.18
2018-07-28T03:05:07.542Z,995.2
2018-07-28T03:05:47.989Z,995.23
2018-07-28T03:06:28.516Z,995.17
2018-07-28T03:07:08.950Z,995.2
2018-07-28T03:07:49.539Z,995.16
2018-07-28T03:08:30.009Z,995.19
2018-07-28T03:09:10.490Z,995.23
2018-07-28T03:09:50.953Z,995.21
2018-07-28T03:10:31.467Z,995.18
2018-07-28T03:11:11.910Z,995.13
2018-07-28T03:11:52.450Z,995.14
2018-07-28T03:12:32.967Z,995.14
2018-07-28T03:13:13.756Z,995.14
2018-07-28T03:13:54.355Z,995.22
2018-07-28T03:14:34.881Z,995.2
2018-07-28T03:15:15.361Z,995.2
2018-07-28T03:15:55.818Z,995.15
2018-07-28T03:16:36.378Z,995.15
2018-07-28T03:17:16.859Z,995.17
2018-07-28T03:17:57.400Z,995.17
2018-07-28T03:18:37.853Z,995.17
2018-07-28T03:19:18.361Z,995.28
2018-07-28T03:19:58.877Z,995.34
2018-07-28T03:20:39.377Z,995.33
2018-07-28T03:21:19.846Z,995.33
2018-07-28T03:22:00.373Z,995.28
2018-07-28T03:22:40.954Z,995.25
2018-07-28T03:23:21.392Z,995.27
2018-07-28T03:24:01.967Z,995.24
2018-07-28T03:24:42.437Z,995.29
2018-07-28T03:25:22.937Z,995.29
2018-07-28T03:26:03.382Z,995.33
2018-07-28T03:26:43.946Z,995.37
2018-07-28T03:27:24.454Z,995.33
2018-07-28T03:28:04.959Z,995.29
2018-07-28T03:28:45.434Z,995.27
2018-07-28T03:29:25.911Z,995.23
2018-07-28T03:30:06.374Z,995.22
2018-07-28T03:30:46.888Z,995.25
2018-07-28T03:31:27.407Z,995.21
2018-07-28T03:32:08.653Z,995.18
2018-07-28T03:32:48.442Z,995.17
2018-07-28T03:33:28.980Z,995.2
2018-07-28T03:34:09.458Z,995.17
2018-07-28T03:34:49.976Z,995.18
2018-07-28T03:35:30.457Z,995.24
2018-07-28T03:36:10.966Z,995.26
2018-07-28T03:36:51.443Z,995.25
2018-07-28T03:37:31.956Z,995.18
2018-07-28T03:38:12.437Z,995.19
2018-07-28T03:38:52.959Z,995.16
2018-07-28T03:39:33.470Z,995.2
2018-07-28T03:40:13.968Z,995.25
2018-07-28T03:40:54.441Z,995.25
2018-07-28T03:41:34.941Z,995.22
2018-07-28T03:42:15.442Z,995.22
2018-07-28T03:42:55.922Z,995.23
2018-07-28T03:43:36.414Z,995.22
2018-07-28T03:44:16.897Z,995.24
2018-07-28T03:44:57.445Z,995.2
2018-07-28T03:45:37.890Z,995.18
2018-07-28T03:46:18.392Z,995.13
2018-07-28T03:46:58.888Z,995.15
2018-07-28T03:47:39.421Z,995.13
2018-07-28T03:48:19.949Z,995.14
2018-07-28T03:49:00.414Z,995.15
2018-07-28T03:49:40.951Z,995.12
2018-07-28T03:50:21.431Z,995.08
2018-07-28T03:51:01.886Z,995.07
2018-07-28T03:51:42.419Z,995.04
2018-07-28T03:52:22.861Z,995.04
2018-07-28T03:53:03.416Z,995.03
2018-07-28T03:53:43.885Z,995.03
2018-07-28T03:54:24.400Z,995.06
2018-07-28T03:55:04.879Z,994.97
2018-07-28T03:55:45.336Z,995.02
2018-07-28T03:56:25.927Z,994.99
2018-07-28T03:57:06.361Z,994.99
2018-07-28T03:57:46.867Z,995.03
2018-07-28T03:58:27.369Z,995
2018-07-28T03:59:07.873Z,994.97
2018-07-28T03:59:48.356Z,994.99
2018-07-28T04:00:28.873Z,994.94
2018-07-28T04:01:09.356Z,994.93
2018-07-28T04:01:49.863Z,994.96
2018-07-28T04:02:30.356Z,995
2018-07-28T04:03:10.847Z,994.97
2018-07-28T04:03:51.334Z,994.95
2018-07-28T04:04:31.882Z,994.96
2018-07-28T04:05:12.397Z,994.96
2018-07-28T04:05:53.807Z,995
2018-07-28T04:06:34.195Z,995
2018-07-28T04:07:14.697Z,995.08
2018-07-28T04:07:55.214Z,995.08
2018-07-28T04:08:35.757Z,995.19
2018-07-28T04:09:16.196Z,995.21
2018-07-28T04:09:56.671Z,995.26
2018-07-28T04:10:37.712Z,995.3
2018-07-28T04:11:18.393Z,995.3
2018-07-28T04:11:58.853Z,995.31
2018-07-28T04:12:39.306Z,995.23
2018-07-28T04:13:19.832Z,995.2
2018-07-28T04:14:00.368Z,995.16
2018-07-28T04:14:40.842Z,995.12
2018-07-28T04:15:21.393Z,995.15
2018-07-28T04:16:01.910Z,995.15
2018-07-28T04:16:42.400Z,995.18
2018-07-28T04:17:22.897Z,995.22
2018-07-28T04:18:03.429Z,995.25
2018-07-28T04:18:43.916Z,995.3
2018-07-28T04:19:24.397Z,995.28
2018-07-28T04:20:04.943Z,995.2
2018-07-28T04:20:45.460Z,995.13
2018-07-28T04:21:25.989Z,995.16
2018-07-28T04:22:06.479Z,995.14
2018-07-28T04:22:46.993Z,995.17
2018-07-28T04:23:27.605Z,995.25
2018-07-28T04:24:08.002Z,995.31
2018-07-28T04:24:48.491Z,995.31
2018-07-28T04:25:28.980Z,995.3
2018-07-28T04:26:09.540Z,995.27
2018-07-28T04:26:50.041Z,995.2
2018-07-28T04:27:30.545Z,995.12
2018-07-28T04:28:11.008Z,995.06
2018-07-28T04:28:51.506Z,995.09
2018-07-28T04:29:32.089Z,995.22
2018-07-28T04:30:12.510Z,995.21
2018-07-28T04:30:53.025Z,995.25
2018-07-28T04:31:33.498Z,995.31
2018-07-28T04:32:13.987Z,995.35
2018-07-28T04:32:54.552Z,995.29
2018-07-28T04:33:35.054Z,995.32
2018-07-28T04:34:15.532Z,995.26
2018-07-28T04:34:56.031Z,995.24
2018-07-28T04:35:36.535Z,995.17
2018-07-28T04:36:17.042Z,995.13
2018-07-28T04:36:57.523Z,995.18
2018-07-28T04:37:38.042Z,995.21
2018-07-28T04:38:18.724Z,995.22
2018-07-28T04:39:00.606Z,995.25
2018-07-28T04:39:41.094Z,995.29
2018-07-28T04:40:21.579Z,995.23
2018-07-28T04:41:02.050Z,995.2
2018-07-28T04:41:42.567Z,995.13
2018-07-28T04:42:23.051Z,995.07
2018-07-28T04:43:03.560Z,995.07
2018-07-28T04:43:44.100Z,995.04
2018-07-28T04:44:24.613Z,995.1
2018-07-28T04:45:05.088Z,995.07
2018-07-28T04:45:45.634Z,995.16
2018-07-28T04:46:26.102Z,995.19
2018-07-28T04:47:06.598Z,995.21
2018-07-28T04:47:47.117Z,995.17
2018-07-28T04:48:27.611Z,995.14
2018-07-28T04:49:08.125Z,995.09
2018-07-28T04:49:48.640Z,995.12
2018-07-28T04:50:29.178Z,995.09
2018-07-28T04:51:09.703Z,995.05
2018-07-28T04:51:50.193Z,995
2018-07-28T04:52:30.691Z,994.96
2018-07-28T04:53:11.193Z,994.96
2018-07-28T04:53:51.685Z,994.95
2018-07-28T04:54:32.127Z,994.97
2018-07-28T04:55:12.666Z,995.02
2018-07-28T04:55:53.110Z,995.08
2018-07-28T04:56:33.613Z,995.01
2018-07-28T04:57:14.151Z,995.07
2018-07-28T04:57:54.603Z,995.03
2018-07-28T04:58:35.126Z,995
2018-07-28T04:59:15.604Z,994.99
2018-07-28T04:59:56.131Z,994.96
2018-07-28T05:00:36.599Z,994.93
2018-07-28T05:01:17.080Z,994.98
2018-07-28T05:01:57.626Z,994.92
2018-07-28T05:02:38.057Z,994.93
2018-07-28T05:03:18.554Z,994.93
2018-07-28T05:03:59.066Z,994.9
2018-07-28T05:04:39.542Z,994.93
2018-07-28T05:05:20.046Z,994.9
2018-07-28T05:06:00.510Z,994.9
2018-07-28T05:06:41.013Z,994.89
2018-07-28T05:07:21.555Z,994.91
2018-07-28T05:08:02.037Z,994.84
2018-07-28T05:08:42.528Z,994.86
2018-07-28T05:09:23.021Z,994.85
2018-07-28T05:10:03.578Z,994.83
2018-07-28T05:10:44.046Z,994.87
2018-07-28T05:11:24.540Z,994.84
2018-07-28T05:12:05.073Z,994.84
2018-07-28T05:12:45.543Z,994.85
2018-07-28T05:13:26.088Z,994.81
2018-07-28T05:14:06.564Z,994.78
2018-07-28T05:14:47.062Z,994.78
2018-07-28T05:15:27.599Z,994.83
2018-07-28T05:16:08.123Z,994.82
2018-07-28T05:16:48.587Z,994.8
2018-07-28T05:17:29.100Z,994.73
2018-07-28T05:18:09.592Z,994.71
2018-07-28T05:18:50.055Z,994.69
2018-07-28T05:19:30.539Z,994.72
2018-07-28T05:20:11.051Z,994.69
2018-07-28T05:20:51.584Z,994.7
2018-07-28T05:21:32.143Z,994.68
2018-07-28T05:22:12.630Z,994.72
2018-07-28T05:22:53.189Z,994.72
2018-07-28T05:23:33.634Z,994.74
2018-07-28T05:24:14.089Z,994.72
2018-07-28T05:24:54.645Z,994.72
2018-07-28T05:25:35.172Z,994.67
2018-07-28T05:26:15.648Z,994.74
2018-07-28T05:26:56.218Z,994.72
2018-07-28T05:27:36.691Z,994.72
2018-07-28T05:28:17.188Z,994.7
2018-07-28T05:28:57.706Z,994.68
2018-07-28T05:29:38.247Z,994.68
2018-07-28T05:30:18.702Z,994.71
2018-07-28T05:30:59.253Z,994.71
2018-07-28T05:31:39.756Z,994.72
2018-07-28T05:32:20.221Z,994.73
2018-07-28T05:33:00.713Z,994.77
2018-07-28T05:33:41.190Z,994.75
2018-07-28T05:34:21.686Z,994.74
2018-07-28T05:35:02.165Z,994.76
2018-07-28T05:35:42.694Z,994.75
2018-07-28T05:36:23.170Z,994.77
2018-07-28T05:37:03.688Z,994.79
2018-07-28T05:37:44.184Z,994.76
2018-07-28T05:38:24.682Z,994.77
2018-07-28T05:39:05.274Z,994.77
2018-07-28T05:39:45.711Z,994.79
2018-07-28T05:40:26.213Z,994.78
2018-07-28T05:41:06.683Z,994.8
2018-07-28T05:41:47.185Z,994.79
2018-07-28T05:42:27.773Z,994.81
2018-07-28T05:43:08.222Z,994.8
2018-07-28T05:43:48.701Z,994.77
2018-07-28T05:44:29.156Z,994.75
2018-07-28T05:45:09.700Z,994.74
2018-07-28T05:45:50.211Z,994.71
2018-07-28T05:46:30.675Z,994.73
2018-07-28T05:47:11.198Z,994.76
2018-07-28T05:47:51.637Z,994.78
2018-07-28T05:48:32.165Z,994.77
2018-07-28T05:49:12.655Z,994.83
2018-07-28T05:49:53.156Z,994.86
2018-07-28T05:50:33.644Z,994.9
2018-07-28T05:51:14.157Z,994.91
2018-07-28T05:51:54.639Z,994.9
2018-07-28T05:52:35.105Z,994.89
2018-07-28T05:53:15.809Z,994.95
2018-07-28T05:53:56.304Z,994.96
2018-07-28T05:54:36.774Z,994.98
2018-07-28T05:55:17.312Z,994.98
2018-07-28T05:55:57.772Z,994.99
2018-07-28T05:56:38.285Z,995
2018-07-28T05:57:18.794Z,995.04
2018-07-28T05:57:59.243Z,995.06
2018-07-28T05:58:39.701Z,995.1
2018-07-28T05:59:20.205Z,995.1
2018-07-28T06:00:00.760Z,995.08
2018-07-28T06:00:41.273Z,995.14
2018-07-28T06:01:21.721Z,995.13
2018-07-28T06:02:02.240Z,995.16
2018-07-28T06:02:42.737Z,995.2
2018-07-28T06:03:23.260Z,995.3
2018-07-28T06:04:03.733Z,995.42
2018-07-28T06:04:44.343Z,995.51
2018-07-28T06:05:24.792Z,995.58
2018-07-28T06:06:05.345Z,995.75
2018-07-28T06:06:45.802Z,995.93
2018-07-28T06:07:26.279Z,996.07
2018-07-28T06:08:06.783Z,996.19
2018-07-28T06:08:47.266Z,996.24
2018-07-28T06:09:27.795Z,996.21
2018-07-28T06:10:08.300Z,996.26
2018-07-28T06:10:48.795Z,996.23
2018-07-28T06:11:29.280Z,996.14
2018-07-28T06:12:09.781Z,996.08
2018-07-28T06:12:50.297Z,996.13
2018-07-28T06:13:30.767Z,996.24
2018-07-28T06:14:11.299Z,996.27
2018-07-28T06:14:51.721Z,996.29
2018-07-28T06:15:32.197Z,996.29
2018-07-28T06:16:12.724Z,996.18
2018-07-28T06:16:53.232Z,996.25
2018-07-28T06:17:33.684Z,996.19
2018-07-28T06:18:14.205Z,996.11
2018-07-28T06:18:54.692Z,996.17
2018-07-28T06:19:35.237Z,996.14
2018-07-28T06:20:15.746Z,996.32
2018-07-28T06:20:56.217Z,996.37
2018-07-28T06:21:36.707Z,996.33
2018-07-28T06:22:17.193Z,996.3
2018-07-28T06:22:57.709Z,996.36
2018-07-28T06:23:38.240Z,996.32
2018-07-28T06:24:18.760Z,996.34
2018-07-28T06:24:59.291Z,996.41
2018-07-28T06:25:39.761Z,996.41
2018-07-28T06:26:20.269Z,996.35
2018-07-28T06:27:00.766Z,996.42
2018-07-28T06:27:41.243Z,996.39
2018-07-28T06:28:21.780Z,996.42
2018-07-28T06:29:02.296Z,996.42
2018-07-28T06:29:42.731Z,996.39
2018-07-28T06:30:23.229Z,996.42
2018-07-28T06:31:03.778Z,996.38
2018-07-28T06:31:44.378Z,996.37
2018-07-28T06:32:24.802Z,996.36
2018-07-28T06:33:05.175Z,996.3
2018-07-28T06:33:45.745Z,996.38
2018-07-28T06:34:26.215Z,996.39
2018-07-28T06:35:06.687Z,996.37
2018-07-28T06:35:47.130Z,996.36
2018-07-28T06:36:27.652Z,996.41
2018-07-28T06:37:08.230Z,996.35
2018-07-28T06:37:48.671Z,996.35
2018-07-28T06:38:29.192Z,996.35
2018-07-28T06:39:09.694Z,996.41
2018-07-28T06:39:50.214Z,996.41
2018-07-28T06:40:30.740Z,996.4
2018-07-28T06:41:11.235Z,996.4
2018-07-28T06:41:51.722Z,996.41
2018-07-28T06:42:32.236Z,996.42
2018-07-28T06:43:12.758Z,996.4
2018-07-28T06:43:53.245Z,996.4
2018-07-28T06:44:33.771Z,996.39
2018-07-28T06:45:14.244Z,996.34
2018-07-28T06:45:54.781Z,996.38
2018-07-28T06:46:35.249Z,996.34
2018-07-28T06:47:15.937Z,996.38
2018-07-28T06:47:56.318Z,996.29
2018-07-28T06:48:36.846Z,996.38
2018-07-28T06:49:17.420Z,996.39
2018-07-28T06:49:58.067Z,996.36
2018-07-28T06:50:38.521Z,996.36
2018-07-28T06:51:19.109Z,996.36
2018-07-28T06:51:59.810Z,996.37
2018-07-28T06:52:40.247Z,996.33
2018-07-28T06:53:20.732Z,996.37
2018-07-28T06:54:01.233Z,996.34
2018-07-28T06:54:41.734Z,996.32
2018-07-28T06:55:22.287Z,996.29
2018-07-28T06:56:02.795Z,996.3
2018-07-28T06:56:43.667Z,996.33
2018-07-28T06:57:24.111Z,996.3
2018-07-28T06:58:04.605Z,996.31
2018-07-28T06:58:45.150Z,996.3
2018-07-28T06:59:25.689Z,996.26
2018-07-28T07:00:06.145Z,996.28
2018-07-28T07:00:46.688Z,996.31
2018-07-28T07:01:27.186Z,996.23
2018-07-28T07:02:07.633Z,996.23
2018-07-28T07:02:48.126Z,996.27
2018-07-28T07:03:28.656Z,996.22
2018-07-28T07:04:09.106Z,996.24
2018-07-28T07:04:49.716Z,996.21
2018-07-28T07:05:30.172Z,996.29
2018-07-28T07:06:10.627Z,996.29
2018-07-28T07:06:51.169Z,996.24
2018-07-28T07:07:31.697Z,996.24
2018-07-28T07:08:12.107Z,996.22
2018-07-28T07:08:52.587Z,996.2
2018-07-28T07:09:33.118Z,996.2
2018-07-28T07:10:13.640Z,996.13
2018-07-28T07:10:54.145Z,996.12
2018-07-28T07:11:34.663Z,996.07
2018-07-28T07:12:15.172Z,996.05
2018-07-28T07:12:55.778Z,996.01
2018-07-28T07:13:36.342Z,996
2018-07-28T07:14:16.830Z,996.03
2018-07-28T07:14:57.416Z,996.02
2018-07-28T07:15:37.930Z,996
2018-07-28T07:16:18.433Z,995.98
2018-07-28T07:16:58.992Z,995.94
2018-07-28T07:17:39.473Z,995.87
2018-07-28T07:18:19.962Z,995.82
2018-07-28T07:19:00.576Z,995.74
2018-07-28T07:19:41.087Z,995.66
2018-07-28T07:20:21.597Z,995.68
2018-07-28T07:21:02.127Z,995.84
2018-07-28T07:21:42.635Z,995.97
2018-07-28T07:22:23.189Z,996.04
2018-07-28T07:23:03.701Z,996.1
2018-07-28T07:23:44.157Z,996.17
2018-07-28T07:24:24.685Z,996.17
2018-07-28T07:25:05.158Z,996.11
2018-07-28T07:25:45.681Z,996.11
2018-07-28T07:26:26.226Z,996.12
2018-07-28T07:27:06.697Z,996.23
2018-07-28T07:27:47.197Z,996.22
2018-07-28T07:28:27.674Z,996.27
2018-07-28T07:29:08.236Z,996.25
2018-07-28T07:29:48.708Z,996.17
2018-07-28T07:30:29.419Z,996.13
2018-07-28T07:31:09.823Z,996.15
2018-07-28T07:31:50.364Z,996.15
2018-07-28T07:32:30.908Z,996.23
2018-07-28T07:33:11.368Z,996.2
2018-07-28T07:33:51.892Z,996.18
2018-07-28T07:34:32.489Z,996.15
2018-07-28T07:35:12.946Z,996.11
2018-07-28T07:35:53.723Z,996.19
2018-07-28T07:36:34.919Z,996.22
2018-07-28T07:37:15.400Z,996.13
2018-07-28T07:37:55.938Z,996.11
2018-07-28T07:38:36.502Z,996.02
2018-07-28T07:39:17.035Z,996.08
2018-07-28T07:39:57.672Z,996.13
2018-07-28T07:40:38.060Z,996.21
2018-07-28T07:41:18.603Z,996.21
2018-07-28T07:41:59.225Z,996.2
2018-07-28T07:42:39.650Z,996.16
2018-07-28T07:43:20.115Z,996.16
2018-07-28T07:44:00.616Z,996.1
2018-07-28T07:44:41.143Z,996.13
2018-07-28T07:45:21.650Z,996.11
2018-07-28T07:46:02.146Z,996.1
2018-07-28T07:46:42.690Z,996.09
2018-07-28T07:47:23.493Z,996.1
2018-07-28T07:48:04.180Z,996.08
2018-07-28T07:48:44.637Z,996.11
2018-07-28T07:49:25.224Z,996.15
2018-07-28T07:50:07.376Z,996.14
2018-07-28T07:50:49.064Z,996.14
2018-07-28T07:51:29.835Z,996.1
2018-07-28T07:52:10.796Z,996.12
2018-07-28T07:52:51.292Z,996.13
2018-07-28T07:53:31.796Z,996.17
2018-07-28T07:54:12.179Z,996.18
2018-07-28T07:54:52.743Z,996.1
2018-07-28T07:55:33.262Z,996.1
2018-07-28T07:56:13.821Z,996.04
2018-07-28T07:56:55.091Z,996.03
2018-07-28T07:57:35.851Z,996.08
2018-07-28T07:58:16.324Z,996.11
2018-07-28T07:58:56.774Z,996.05
2018-07-28T07:59:37.415Z,996.07
2018-07-28T08:00:18.064Z,996.05
2018-07-28T08:00:58.547Z,996.05
2018-07-28T08:01:39.022Z,996.06
2018-07-28T08:02:19.550Z,996.04
2018-07-28T08:03:00.033Z,996.04
2018-07-28T08:03:40.588Z,996.05
2018-07-28T08:04:21.082Z,996.1
2018-07-28T08:05:01.558Z,996.04
2018-07-28T08:05:42.095Z,996.04
2018-07-28T08:06:22.572Z,996.01
2018-07-28T08:07:03.090Z,996.05
2018-07-28T08:07:43.823Z,996.04
2018-07-28T08:08:24.774Z,996.04
2018-07-28T08:09:06.061Z,996.07
2018-07-28T08:09:46.585Z,996.12
2018-07-28T08:10:27.104Z,996.1
2018-07-28T08:11:07.724Z,996.14
2018-07-28T08:11:48.160Z,996.1
2018-07-28T08:12:28.721Z,996.12
2018-07-28T08:13:09.570Z,996.11
2018-07-28T08:13:50.028Z,996.09
2018-07-28T08:14:30.519Z,996.09
2018-07-28T08:15:11.050Z,996.1
2018-07-28T08:15:51.601Z,996.08
2018-07-28T08:16:32.115Z,996.07
2018-07-28T08:17:12.680Z,996.07
2018-07-28T08:17:53.130Z,996.08
2018-07-28T08:18:33.644Z,996.08
2018-07-28T08:19:14.143Z,996.08
2018-07-28T08:19:54.675Z,996.08
2018-07-28T08:20:35.251Z,996.11
2018-07-28T08:21:15.718Z,996.13
2018-07-28T08:21:56.292Z,996.12
2018-07-28T08:22:36.746Z,996.14
2018-07-28T08:23:17.209Z,996.16
2018-07-28T08:23:57.810Z,996.17
2018-07-28T08:24:38.325Z,996.17
2018-07-28T08:25:18.996Z,996.18
2018-07-28T08:25:59.715Z,996.2
2018-07-28T08:26:40.223Z,996.17
2018-07-28T08:27:20.574Z,996.16
2018-07-28T08:28:01.170Z,996.14